High Glow — 3EAV5 — position and weather

sailwx.info

Track history (hours):
 
Tides and Currents Weather Stations Pressure Air Temp Water Temp Dewpoint Dewpoint Depression Visibility Wind Speed Wind Dir Waves Ship Positions

High Glow

Last reported at 2017-Oct-18 08:47 UTC. Time now 2017-Nov-19 17:52 UTC.
Position N 29°18' W 094°37'.
Warning: this ship's position is 32 days out of date.

Length 180 m; draft 11.9 m.

Type: Ship. MMSI: 371179000.

Date/timePositionNaut miles runAvg speedWind from/ knotsBaromVisibWave heightAir tempDewpointWater temp
2017-Oct-18 08:47N 29°18' W 094°37'310.4
2017-Oct-18 08:30N 29°20' W 094°40'710.9
2017-Oct-18 07:54N 29°21' W 094°47'411.1
2017-Oct-18 07:30N 29°25' W 094°50'611.2
2017-Oct-18 07:00N 29°30' W 094°52'611.1
2017-Oct-18 06:30N 29°35' W 094°56'510.8
2017-Oct-18 06:00N 29°39' W 094°58'4 8.6
2017-Oct-18 05:30N 29°43' W 095°01'3 6.7
2017-Oct-18 05:00N 29°45' W 095°04'3 5.4
2017-Oct-18 04:30N 29°44' W 095°07'3 5.1
2017-Oct-18 04:00N 29°45' W 095°10'2 4.6
2017-Oct-18 03:30N 29°44' W 095°12'1 2.4
2017-Oct-18 03:00N 29°43' W 095°14'0 0.0
2017-Oct-18 02:30N 29°43' W 095°14'0 0.0
2017-Oct-18 02:00N 29°43' W 095°14'0 0.0
2017-Oct-16 02:02N 29°43' W 095°14'0 0.0
2017-Oct-16 02:00N 29°43' W 095°14'1 1.2
2017-Oct-16 01:29N 29°43' W 095°14'2 4.4
2017-Oct-16 01:00N 29°44' W 095°12'3 6.1
2017-Oct-16 00:30N 29°44' W 095°09'3 7.0
2017-Oct-16 00:01N 29°46' W 095°05'4 8.4
2017-Oct-15 23:30N 29°43' W 095°01'4 8.8
2017-Oct-15 23:00N 29°40' W 094°58'611.6
2017-Oct-15 22:30N 29°34' W 094°56'612.1
2017-Oct-15 22:00N 29°29' W 094°52'612.4
2017-Oct-15 21:30N 29°24' W 094°49'  
2017-Oct-11 00:00N 25°34' W 079°29'813.7
2017-Oct-10 23:25N 25°42' W 079°28'613.7
2017-Oct-10 23:00N 25°48' W 079°28'713.9
2017-Oct-10 22:30N 25°55' W 079°28'714.2
2017-Oct-10 22:00N 26°02' W 079°28'714.0
2017-Oct-10 21:30N 26°09' W 079°26'714.1
2017-Oct-10 21:00N 26°16' W 079°26'  
Track history (hours):
 
Tides and Currents Weather Stations Pressure Air Temp Water Temp Dewpoint Dewpoint Depression Visibility Wind Speed Wind Dir Waves Ship Positions

High Glow

Last reported at 2017-Oct-18 08:47 UTC. Time now 2017-Nov-19 17:52 UTC.
Position N 29°18' W 094°37'.
Warning: this ship's position is 32 days out of date.

Length 180 m; draft 11.9 m.

Type: Ship. MMSI: 371179000.

Date/timePositionNaut miles runAvg speedWind from/ knotsBaromVisibWave heightAir tempDewpointWater temp
2017-Oct-18 08:47N 29°18' W 094°37'310.4
2017-Oct-18 08:30N 29°20' W 094°40'710.9
2017-Oct-18 07:54N 29°21' W 094°47'411.1
2017-Oct-18 07:30N 29°25' W 094°50'611.2
2017-Oct-18 07:00N 29°30' W 094°52'611.1
2017-Oct-18 06:30N 29°35' W 094°56'510.8
2017-Oct-18 06:00N 29°39' W 094°58'4 8.6
2017-Oct-18 05:30N 29°43' W 095°01'3 6.7
2017-Oct-18 05:00N 29°45' W 095°04'3 5.4
2017-Oct-18 04:30N 29°44' W 095°07'3 5.1
2017-Oct-18 04:00N 29°45' W 095°10'2 4.6
2017-Oct-18 03:30N 29°44' W 095°12'1 2.4
2017-Oct-18 03:00N 29°43' W 095°14'0 0.0
2017-Oct-18 02:30N 29°43' W 095°14'0 0.0
2017-Oct-18 02:00N 29°43' W 095°14'0 0.0
2017-Oct-16 02:02N 29°43' W 095°14'0 0.0
2017-Oct-16 02:00N 29°43' W 095°14'1 1.2
2017-Oct-16 01:29N 29°43' W 095°14'2 4.4
2017-Oct-16 01:00N 29°44' W 095°12'3 6.1
2017-Oct-16 00:30N 29°44' W 095°09'3 7.0
2017-Oct-16 00:01N 29°46' W 095°05'4 8.4
2017-Oct-15 23:30N 29°43' W 095°01'4 8.8
2017-Oct-15 23:00N 29°40' W 094°58'611.6
2017-Oct-15 22:30N 29°34' W 094°56'612.1
2017-Oct-15 22:00N 29°29' W 094°52'612.4
2017-Oct-15 21:30N 29°24' W 094°49'  
2017-Oct-11 00:00N 25°34' W 079°29'813.7
2017-Oct-10 23:25N 25°42' W 079°28'613.7
2017-Oct-10 23:00N 25°48' W 079°28'713.9
2017-Oct-10 22:30N 25°55' W 079°28'714.2
2017-Oct-10 22:00N 26°02' W 079°28'714.0
2017-Oct-10 21:30N 26°09' W 079°26'714.1
2017-Oct-10 21:00N 26°16' W 079°26'  

Dump ship's entire track history